createdAt,value
2023-03-02T00:02:00.882Z,98928.44
2023-03-02T00:04:41.293Z,98929.53
2023-03-02T00:07:11.465Z,98932.16
2023-03-02T00:09:38.701Z,98939.94
2023-03-02T00:12:06.957Z,98949.38
2023-03-02T00:14:33.611Z,98936.34
2023-03-02T00:17:00.140Z,98933.69
2023-03-02T00:19:26.754Z,98939.38
2023-03-02T00:21:53.565Z,98941.75
2023-03-02T00:24:20.077Z,98946.28
2023-03-02T00:26:46.557Z,98953.75
2023-03-02T00:29:13.206Z,98955.38
2023-03-02T00:31:40.140Z,98967.03
2023-03-02T00:34:07.097Z,98974.34
2023-03-02T00:36:33.911Z,98968.53
2023-03-02T00:39:01.224Z,98971.84
2023-03-02T00:41:27.776Z,98976.28
2023-03-02T00:43:54.224Z,98974.47
2023-03-02T00:46:23.277Z,98981.53
2023-03-02T00:48:50.270Z,98978.34
2023-03-02T00:51:17.578Z,98977.22
2023-03-02T00:53:44.435Z,98969.22
2023-03-02T00:56:11.229Z,98969.19
2023-03-02T00:58:38.306Z,98980.34
2023-03-02T01:01:12.098Z,98988.09
2023-03-02T01:03:38.937Z,98992.66
2023-03-02T01:06:06.723Z,98995.09
2023-03-02T01:08:33.460Z,98993.69
2023-03-02T01:10:59.953Z,99006.97
2023-03-02T01:13:26.456Z,99004.63
2023-03-02T01:16:01.327Z,99005.88
2023-03-02T01:18:28.213Z,99010.00
2023-03-02T01:21:04.712Z,98979.41
2023-03-02T01:23:31.576Z,98975.50
2023-03-02T01:25:58.342Z,98973.84
2023-03-02T01:28:25.025Z,98977.13
2023-03-02T01:30:51.737Z,98981.50
2023-03-02T01:33:18.248Z,98982.78
2023-03-02T01:35:46.623Z,98991.66
2023-03-02T01:38:13.684Z,98983.63
2023-03-02T01:40:41.316Z,98981.25
2023-03-02T01:43:13.684Z,98976.94
2023-03-02T01:45:54.009Z,98975.94
2023-03-02T01:48:27.438Z,98980.34
2023-03-02T01:50:56.031Z,98985.03
2023-03-02T01:53:25.918Z,98982.91
2023-03-02T01:55:53.284Z,98979.56
2023-03-02T01:58:21.364Z,98959.53
2023-03-02T02:00:48.217Z,98949.22
2023-03-02T02:03:20.396Z,98940.59
2023-03-02T02:05:57.521Z,98938.81
2023-03-02T02:08:24.900Z,98937.59
2023-03-02T02:10:52.954Z,98930.13
2023-03-02T02:13:19.525Z,98939.78
2023-03-02T02:15:46.025Z,98938.50
2023-03-02T02:18:12.496Z,98930.47
2023-03-02T02:20:44.613Z,98946.66
2023-03-02T02:23:36.571Z,98944.50
2023-03-02T02:26:06.771Z,98956.00
2023-03-02T02:28:46.188Z,98954.16
2023-03-02T02:31:33.260Z,98958.38
2023-03-02T02:34:25.067Z,98962.50
2023-03-02T02:36:56.539Z,98966.84
2023-03-02T02:39:31.534Z,98980.50
2023-03-02T02:42:02.335Z,98966.69
2023-03-02T02:44:28.868Z,98966.59
2023-03-02T02:46:55.557Z,98974.31
2023-03-02T02:49:30.185Z,98978.84
2023-03-02T02:51:57.297Z,98982.19
2023-03-02T02:54:24.695Z,98987.81
2023-03-02T02:56:53.265Z,98985.09
2023-03-02T02:59:23.754Z,98991.75
2023-03-02T03:01:51.335Z,99005.25
2023-03-02T03:04:20.918Z,99000.38
2023-03-02T03:07:02.876Z,99011.63
2023-03-02T03:09:29.632Z,99012.09
2023-03-02T03:12:04.688Z,99003.03
2023-03-02T03:14:36.064Z,99010.56
2023-03-02T03:17:02.879Z,99006.97
2023-03-02T03:19:32.099Z,99015.66
2023-03-02T03:22:02.162Z,99018.09
2023-03-02T03:24:32.025Z,99016.47
2023-03-02T03:26:59.021Z,99032.91
2023-03-02T03:29:28.389Z,99038.63
2023-03-02T03:31:56.838Z,99050.34
2023-03-02T03:34:24.765Z,99043.63
2023-03-02T03:36:52.197Z,99044.13
2023-03-02T03:39:19.647Z,99051.97
2023-03-02T03:41:46.479Z,99041.69
2023-03-02T03:44:13.225Z,99040.50
2023-03-02T03:46:39.672Z,99032.50
2023-03-02T03:49:06.424Z,99027.75
2023-03-02T03:51:32.946Z,99039.44
2023-03-02T03:53:59.756Z,99043.97
2023-03-02T03:56:31.434Z,99044.47
2023-03-02T03:58:58.012Z,99054.38
2023-03-02T04:01:24.569Z,99062.16
2023-03-02T04:03:51.375Z,99068.59
2023-03-02T04:06:17.844Z,99076.59
2023-03-02T04:08:44.833Z,99083.66
2023-03-02T04:11:11.562Z,99099.50
2023-03-02T04:13:37.973Z,99107.56
2023-03-02T04:16:04.985Z,99134.50
2023-03-02T04:18:31.357Z,99142.31
2023-03-02T04:20:57.856Z,99158.72
2023-03-02T04:23:24.355Z,99170.06
2023-03-02T04:25:50.826Z,99173.00
2023-03-02T04:28:17.663Z,99185.75
2023-03-02T04:30:44.436Z,99190.16
2023-03-02T04:33:10.877Z,99200.47
2023-03-02T04:35:37.442Z,99207.72
2023-03-02T04:38:04.074Z,99206.63
2023-03-02T04:40:30.554Z,99208.78
2023-03-02T04:42:57.062Z,99212.09
2023-03-02T04:45:23.503Z,99203.31
2023-03-02T04:47:50.004Z,99206.84
2023-03-02T04:50:16.502Z,99207.50
2023-03-02T04:52:43.171Z,99213.06
2023-03-02T04:55:15.599Z,99214.09
2023-03-02T04:57:42.364Z,99211.63
2023-03-02T05:00:09.564Z,99218.28
2023-03-02T05:02:36.080Z,99209.25
2023-03-02T05:05:02.765Z,99213.97
2023-03-02T05:07:29.418Z,99209.31
2023-03-02T05:09:56.171Z,99206.47
2023-03-02T05:12:23.786Z,99200.34
2023-03-02T05:14:50.356Z,99201.16
2023-03-02T05:17:16.842Z,99192.25
2023-03-02T05:19:43.452Z,99195.25
2023-03-02T05:22:09.932Z,99190.75
2023-03-02T05:24:36.769Z,99186.44
2023-03-02T05:27:03.210Z,99190.22
2023-03-02T05:29:29.774Z,99192.41
2023-03-02T05:31:56.841Z,99190.97
2023-03-02T05:34:23.482Z,99194.19
2023-03-02T05:36:50.074Z,99203.03
2023-03-02T05:39:16.705Z,99198.59
2023-03-02T05:41:43.129Z,99206.09
2023-03-02T05:44:10.037Z,99199.66
2023-03-02T05:46:37.001Z,99193.22
2023-03-02T05:49:04.178Z,99201.69
2023-03-02T05:51:30.653Z,99199.59
2023-03-02T05:53:57.185Z,99201.03
2023-03-02T05:56:23.716Z,99199.22
2023-03-02T05:58:50.205Z,99204.25
2023-03-02T06:01:16.596Z,99205.72
2023-03-02T06:03:43.913Z,99207.97
2023-03-02T06:06:11.007Z,99204.16
2023-03-02T06:08:37.540Z,99202.94
2023-03-02T06:11:04.523Z,99210.34
2023-03-02T06:13:30.939Z,99206.81
2023-03-02T06:15:58.630Z,99206.69
2023-03-02T06:18:25.100Z,99209.66
2023-03-02T06:20:51.541Z,99211.97
2023-03-02T06:23:18.309Z,99217.34
2023-03-02T06:25:44.937Z,99209.47
2023-03-02T06:28:11.410Z,99213.44
2023-03-02T06:30:37.852Z,99212.22
2023-03-02T06:33:04.219Z,99212.84
2023-03-02T06:35:31.070Z,99215.84
2023-03-02T06:37:57.965Z,99207.84
2023-03-02T06:40:24.965Z,99206.53
2023-03-02T06:42:51.585Z,99198.50
2023-03-02T06:45:18.199Z,99208.06
2023-03-02T06:47:44.818Z,99209.47
2023-03-02T06:50:11.797Z,99202.66
2023-03-02T06:52:38.234Z,99200.63
2023-03-02T06:55:05.458Z,99202.75
2023-03-02T06:57:32.633Z,99200.47
2023-03-02T07:00:00.443Z,99200.97
2023-03-02T07:02:26.856Z,99194.59
2023-03-02T07:04:53.277Z,99185.00
2023-03-02T07:07:19.812Z,99177.56
2023-03-02T07:09:46.690Z,99174.78
2023-03-02T07:12:13.211Z,99161.69
2023-03-02T07:14:43.492Z,99157.34
2023-03-02T07:17:10.106Z,99143.97
2023-03-02T07:19:38.396Z,99133.50
2023-03-02T07:22:07.684Z,99113.31
2023-03-02T07:24:34.070Z,99102.00
2023-03-02T07:27:00.790Z,99078.13
2023-03-02T07:29:27.281Z,99067.22
2023-03-02T07:31:54.098Z,99045.28
2023-03-02T07:34:20.575Z,99047.94
2023-03-02T07:36:47.032Z,99053.38
2023-03-02T07:39:13.593Z,99037.44
2023-03-02T07:41:40.128Z,99024.28
2023-03-02T07:44:06.621Z,98963.94
2023-03-02T07:46:33.254Z,98974.88
2023-03-02T07:48:59.770Z,98990.84
2023-03-02T07:51:26.838Z,98974.75
2023-03-02T07:53:53.414Z,98986.41
2023-03-02T07:56:20.018Z,98988.19
2023-03-02T07:58:47.378Z,98971.81
2023-03-02T08:01:14.189Z,98986.25
2023-03-02T08:03:41.111Z,98973.47
2023-03-02T08:06:10.407Z,98973.44
2023-03-02T08:08:38.190Z,98970.50
2023-03-02T08:11:07.269Z,98975.03
2023-03-02T08:13:33.778Z,98953.78
2023-03-02T08:16:04.800Z,98958.97
2023-03-02T08:18:31.682Z,98945.44
2023-03-02T08:20:58.576Z,98940.88
2023-03-02T08:23:26.115Z,98936.00
2023-03-02T08:25:53.836Z,98923.50
2023-03-02T08:28:22.057Z,98927.25
2023-03-02T08:30:56.287Z,98912.84
2023-03-02T08:33:23.290Z,98909.66
2023-03-02T08:36:21.300Z,98910.13
2023-03-02T08:38:49.598Z,98896.97
2023-03-02T08:41:19.332Z,98887.09
2023-03-02T08:43:46.155Z,98889.91
2023-03-02T08:46:14.851Z,98891.84
2023-03-02T08:48:41.425Z,98894.56
2023-03-02T08:51:12.308Z,98882.25
2023-03-02T08:53:40.496Z,98880.25
2023-03-02T08:56:20.781Z,98871.75
2023-03-02T08:58:51.366Z,98859.00
2023-03-02T09:01:21.182Z,98867.22
2023-03-02T09:03:47.741Z,98854.69
2023-03-02T09:06:14.326Z,98842.97
2023-03-02T09:08:40.879Z,98837.75
2023-03-02T09:11:07.653Z,98824.91
2023-03-02T09:13:34.923Z,98810.81
2023-03-02T09:16:01.534Z,98808.53
2023-03-02T09:18:30.369Z,98803.72
2023-03-02T09:20:57.559Z,98795.88
2023-03-02T09:23:25.506Z,98790.06
2023-03-02T09:25:58.398Z,98787.56
2023-03-02T09:28:28.786Z,98796.34
2023-03-02T09:31:16.772Z,98794.91
2023-03-02T09:33:43.421Z,98807.28
2023-03-02T09:36:12.015Z,98800.16
2023-03-02T09:38:38.658Z,98796.88
2023-03-02T09:41:20.350Z,98799.44
2023-03-02T09:44:08.556Z,98795.66
2023-03-02T09:46:50.272Z,98792.34
2023-03-02T09:49:53.066Z,98804.91
2023-03-02T09:52:30.504Z,98798.41
2023-03-02T09:55:01.740Z,98794.88
2023-03-02T09:57:35.059Z,98794.28
2023-03-02T10:00:21.803Z,98795.47
2023-03-02T10:02:56.223Z,98787.88
2023-03-02T10:05:38.441Z,98802.47
2023-03-02T10:08:22.596Z,98800.97
2023-03-02T10:11:07.750Z,98800.00
2023-03-02T10:14:03.955Z,98801.16
2023-03-02T10:16:45.116Z,98803.63
2023-03-02T10:19:31.267Z,98803.06
2023-03-02T10:22:26.216Z,98801.97
2023-03-02T10:25:23.286Z,98808.88
2023-03-02T10:27:56.729Z,98806.19
2023-03-02T10:30:39.153Z,98799.13
2023-03-02T10:33:21.806Z,98806.59
2023-03-02T10:35:54.181Z,98805.78
2023-03-02T10:38:24.744Z,98803.63
2023-03-02T10:41:02.851Z,98805.19
2023-03-02T10:43:38.174Z,98804.75
2023-03-02T10:46:08.105Z,98806.91
2023-03-02T10:48:52.831Z,98804.69
2023-03-02T10:51:26.193Z,98804.81
2023-03-02T10:54:12.378Z,98795.41
2023-03-02T10:56:43.306Z,98802.41
2023-03-02T10:59:29.719Z,98799.59
2023-03-02T11:02:15.002Z,98796.44
2023-03-02T11:04:41.859Z,98795.47
2023-03-02T11:07:17.943Z,98789.25
2023-03-02T11:09:59.792Z,98792.38
2023-03-02T11:12:26.829Z,98788.72
2023-03-02T11:15:25.530Z,98783.50
2023-03-02T11:18:12.124Z,98788.56
2023-03-02T11:20:42.249Z,98788.56
2023-03-02T11:23:48.074Z,98783.94
2023-03-02T11:26:34.710Z,98782.00
2023-03-02T11:29:09.003Z,98789.94
2023-03-02T11:31:50.255Z,98786.28
2023-03-02T11:34:44.380Z,98780.03
2023-03-02T11:37:45.737Z,98776.97
2023-03-02T11:40:25.047Z,98773.03
2023-03-02T11:42:53.246Z,98769.50
2023-03-02T11:45:29.806Z,98775.59
2023-03-02T11:48:09.782Z,98773.59
2023-03-02T11:50:45.745Z,98784.59
2023-03-02T11:53:16.864Z,98771.84
2023-03-02T11:55:46.573Z,98766.94
2023-03-02T11:58:23.211Z,98767.53
2023-03-02T12:00:51.067Z,98772.31
2023-03-02T12:03:37.676Z,98770.25
2023-03-02T12:06:15.307Z,98763.53
2023-03-02T12:08:46.267Z,98764.22
2023-03-02T12:11:18.825Z,98774.34
2023-03-02T12:13:58.845Z,98764.16
2023-03-02T12:16:40.255Z,98765.38
2023-03-02T12:19:14.155Z,98765.03
2023-03-02T12:21:44.413Z,98757.09
2023-03-02T12:24:35.176Z,98754.47
2023-03-02T12:27:06.662Z,98757.44
2023-03-02T12:29:39.232Z,98760.22
2023-03-02T12:32:42.220Z,98758.50
2023-03-02T12:35:08.592Z,98755.56
2023-03-02T12:37:52.130Z,98747.56
2023-03-02T12:40:40.527Z,98746.47
2023-03-02T12:43:27.759Z,98741.63
2023-03-02T12:46:27.640Z,98745.47
2023-03-02T12:49:22.446Z,98743.13
2023-03-02T12:51:57.240Z,98742.31
2023-03-02T12:54:31.919Z,98744.41
2023-03-02T12:57:07.938Z,98734.72
2023-03-02T12:59:35.093Z,98742.00
2023-03-02T13:02:14.538Z,98738.66
2023-03-02T13:04:41.675Z,98741.41
2023-03-02T13:07:17.173Z,98734.19
2023-03-02T13:09:55.653Z,98726.81
2023-03-02T13:12:23.566Z,98730.09
2023-03-02T13:14:54.571Z,98734.63
2023-03-02T13:17:31.572Z,98735.63
2023-03-02T13:19:59.685Z,98728.94
2023-03-02T13:22:27.188Z,98732.28
2023-03-02T13:25:00.867Z,98729.94
2023-03-02T13:27:28.365Z,98727.09
2023-03-02T13:29:55.583Z,98722.75
2023-03-02T13:32:34.985Z,98725.19
2023-03-02T13:35:02.100Z,98714.88
2023-03-02T13:37:39.730Z,98726.88
2023-03-02T13:43:31.369Z,98721.72
2023-03-02T13:45:59.275Z,98718.00
2023-03-02T13:48:26.352Z,98720.16
2023-03-02T13:51:03.809Z,98711.00
2023-03-02T13:53:32.496Z,98711.94
2023-03-02T13:55:59.632Z,98716.59
2023-03-02T13:58:27.177Z,98716.91
2023-03-02T14:00:53.947Z,98708.41
2023-03-02T14:03:32.423Z,98713.94
2023-03-02T14:06:00.005Z,98712.53
2023-03-02T14:08:26.580Z,98705.69
2023-03-02T14:10:56.123Z,98716.19
2023-03-02T14:13:35.792Z,98720.53
2023-03-02T14:16:06.001Z,98715.00
2023-03-02T14:18:57.219Z,98711.00
2023-03-02T14:21:31.046Z,98709.94
2023-03-02T14:23:58.392Z,98706.69
2023-03-02T14:26:51.573Z,98708.94
2023-03-02T14:29:35.777Z,98704.78
2023-03-02T14:32:04.120Z,98705.00
2023-03-02T14:34:37.060Z,98705.94
2023-03-02T14:37:15.856Z,98703.91
2023-03-02T14:39:47.286Z,98694.44
2023-03-02T14:42:16.631Z,98697.47
2023-03-02T14:44:44.651Z,98696.19
2023-03-02T14:47:13.810Z,98698.91
2023-03-02T14:49:45.029Z,98699.53
2023-03-02T14:52:21.015Z,98700.56
2023-03-02T14:54:53.810Z,98700.94
2023-03-02T14:57:23.216Z,98703.22
2023-03-02T14:59:49.650Z,98699.28
2023-03-02T15:02:25.339Z,98699.28
2023-03-02T15:04:56.413Z,98694.94
2023-03-02T15:07:23.686Z,98702.56
2023-03-02T15:09:50.509Z,98700.69
2023-03-02T15:12:17.025Z,98706.28
2023-03-02T15:14:43.903Z,98699.84
2023-03-02T15:17:10.421Z,98697.56
2023-03-02T15:19:36.981Z,98697.13
2023-03-02T15:22:04.651Z,98698.28
2023-03-02T15:24:33.265Z,98694.75
2023-03-02T15:27:00.636Z,98696.53
2023-03-02T15:29:27.208Z,98693.69
2023-03-02T15:31:53.919Z,98689.84
2023-03-02T15:34:20.635Z,98698.53
2023-03-02T15:36:47.277Z,98687.78
2023-03-02T15:39:14.779Z,98696.53
2023-03-02T15:41:41.862Z,98700.78
2023-03-02T15:44:18.275Z,98694.59
2023-03-02T15:46:47.278Z,98697.41
2023-03-02T15:49:14.151Z,98696.66
2023-03-02T15:51:40.909Z,98692.72
2023-03-02T15:54:07.424Z,98690.47
2023-03-02T15:56:43.727Z,98688.94
2023-03-02T15:59:11.325Z,98692.84
2023-03-02T16:01:37.899Z,98697.97
2023-03-02T16:04:04.362Z,98706.66
2023-03-02T16:06:39.269Z,98702.34
2023-03-02T16:09:06.053Z,98697.88
2023-03-02T16:11:32.707Z,98707.34
2023-03-02T16:13:59.135Z,98699.44
2023-03-02T16:16:25.870Z,98709.44
2023-03-02T16:18:54.442Z,98711.03
2023-03-02T16:21:21.548Z,98713.13
2023-03-02T16:23:52.353Z,98713.59
2023-03-02T16:26:21.064Z,98724.31
2023-03-02T16:28:48.287Z,98724.41
2023-03-02T16:31:17.714Z,98720.81
2023-03-02T16:33:45.168Z,98734.19
2023-03-02T16:36:12.939Z,98740.59
2023-03-02T16:38:40.427Z,98736.16
2023-03-02T16:41:27.160Z,98744.66
2023-03-02T16:43:56.768Z,98746.72
2023-03-02T16:46:24.913Z,98756.59
2023-03-02T16:48:51.424Z,98758.94
2023-03-02T16:51:19.612Z,98770.03
2023-03-02T16:53:47.070Z,98765.28
2023-03-02T16:56:14.021Z,98770.47
2023-03-02T16:58:41.529Z,98781.09
2023-03-02T17:01:19.765Z,98784.84
2023-03-02T17:03:47.893Z,98793.69
2023-03-02T17:06:16.276Z,98791.41
2023-03-02T17:08:43.920Z,98802.84
2023-03-02T17:11:10.545Z,98806.47
2023-03-02T17:13:37.461Z,98808.00
2023-03-02T17:16:04.819Z,98811.16
2023-03-02T17:18:32.323Z,98814.47
2023-03-02T17:20:59.831Z,98817.81
2023-03-02T17:23:27.759Z,98827.97
2023-03-02T17:25:55.870Z,98830.81
2023-03-02T17:28:24.152Z,98830.81
2023-03-02T17:30:50.734Z,98832.47
2023-03-02T17:33:17.245Z,98841.25
2023-03-02T17:35:43.811Z,98850.56
2023-03-02T17:38:10.880Z,98854.06
2023-03-02T17:40:37.994Z,98859.00
2023-03-02T17:43:04.886Z,98860.03
2023-03-02T17:45:32.512Z,98869.31
2023-03-02T17:48:03.080Z,98879.94
2023-03-02T17:50:30.766Z,98880.78
2023-03-02T17:52:59.189Z,98889.69
2023-03-02T17:55:26.931Z,98894.00
2023-03-02T17:57:54.014Z,98896.66
2023-03-02T18:00:22.394Z,98893.00
2023-03-02T18:02:50.010Z,98904.94
2023-03-02T18:05:16.823Z,98901.94
2023-03-02T18:07:43.285Z,98908.75
2023-03-02T18:10:10.728Z,98915.03
2023-03-02T18:12:43.555Z,98920.16
2023-03-02T18:15:11.295Z,98930.06
2023-03-02T18:17:39.094Z,98934.88
2023-03-02T18:20:06.102Z,98936.84
2023-03-02T18:22:32.750Z,98938.13
2023-03-02T18:24:59.291Z,98940.25
2023-03-02T18:27:25.753Z,98946.88
2023-03-02T18:29:52.326Z,98944.03
2023-03-02T18:32:18.989Z,98949.81
2023-03-02T18:34:45.847Z,98955.72
2023-03-02T18:37:12.359Z,98957.22
2023-03-02T18:39:39.099Z,98971.22
2023-03-02T18:42:07.103Z,98975.19
2023-03-02T18:44:35.099Z,98978.81
2023-03-02T18:47:02.774Z,98979.97
2023-03-02T18:49:30.368Z,98979.59
2023-03-02T18:51:57.322Z,98979.78
2023-03-02T18:54:24.013Z,98988.16
2023-03-02T18:56:50.856Z,98987.47
2023-03-02T18:59:18.776Z,98997.94
2023-03-02T19:01:47.844Z,98992.25
2023-03-02T19:04:15.050Z,98996.03
2023-03-02T19:06:42.979Z,98995.22
2023-03-02T19:09:10.671Z,98994.00
2023-03-02T19:11:38.606Z,98998.13
2023-03-02T19:14:05.088Z,99004.69
2023-03-02T19:16:32.005Z,99011.28
2023-03-02T19:18:58.850Z,99017.91
2023-03-02T19:21:25.535Z,99019.13
2023-03-02T19:24:02.275Z,99017.09
2023-03-02T19:26:28.765Z,99019.09
2023-03-02T19:28:55.219Z,99024.50
2023-03-02T19:31:22.255Z,99024.19
2023-03-02T19:33:48.687Z,99024.50
2023-03-02T19:36:15.467Z,99024.50
2023-03-02T19:38:41.933Z,99027.53
2023-03-02T19:41:17.386Z,99027.16
2023-03-02T19:43:44.224Z,99030.50
2023-03-02T19:46:10.954Z,99036.22
2023-03-02T19:48:38.751Z,99039.16
2023-03-02T19:51:06.975Z,99032.16
2023-03-02T19:53:34.676Z,99043.19
2023-03-02T19:56:02.332Z,99047.13
2023-03-02T19:58:29.805Z,99050.50
2023-03-02T20:00:56.238Z,99063.19
2023-03-02T20:03:22.678Z,99062.13
2023-03-02T20:05:49.998Z,99065.34
2023-03-02T20:08:17.087Z,99075.81
2023-03-02T20:10:46.832Z,99083.66
2023-03-02T20:13:13.452Z,99091.47
2023-03-02T20:15:42.616Z,99098.03
2023-03-02T20:18:12.447Z,99100.44
2023-03-02T20:20:38.973Z,99103.19
2023-03-02T20:23:06.329Z,99110.72
2023-03-02T20:25:36.558Z,99117.56
2023-03-02T20:28:04.699Z,99126.59
2023-03-02T20:30:45.551Z,99143.81
2023-03-02T20:33:13.335Z,99150.53
2023-03-02T20:35:42.350Z,99155.84
2023-03-02T20:38:16.136Z,99168.59
2023-03-02T20:40:44.126Z,99167.22
2023-03-02T20:43:10.982Z,99172.09
2023-03-02T20:45:38.329Z,99180.72
2023-03-02T20:48:05.122Z,99188.19
2023-03-02T20:50:34.096Z,99189.31
2023-03-02T20:53:01.688Z,99194.03
2023-03-02T20:55:29.836Z,99198.03
2023-03-02T20:57:58.670Z,99202.63
2023-03-02T21:00:27.606Z,99211.94
2023-03-02T21:02:54.275Z,99213.03
2023-03-02T21:05:21.589Z,99213.44
2023-03-02T21:07:49.225Z,99216.50
2023-03-02T21:10:22.217Z,99222.88
2023-03-02T21:12:48.897Z,99225.91
2023-03-02T21:15:16.946Z,99230.59
2023-03-02T21:17:43.362Z,99235.88
2023-03-02T21:20:11.257Z,99234.50
2023-03-02T21:22:39.026Z,99235.59
2023-03-02T21:25:06.248Z,99227.69
2023-03-02T21:27:32.655Z,99237.81
2023-03-02T21:29:59.105Z,99232.34
2023-03-02T21:32:25.589Z,99236.25
2023-03-02T21:34:52.069Z,99260.66
2023-03-02T21:37:18.895Z,99259.13
2023-03-02T21:39:45.735Z,99242.56
2023-03-02T21:42:12.533Z,99246.41
2023-03-02T21:44:39.056Z,99248.91
2023-03-02T21:47:06.132Z,99265.34
2023-03-02T21:49:32.674Z,99267.09
2023-03-02T21:51:59.165Z,99274.44
2023-03-02T21:54:25.663Z,99277.56
2023-03-02T21:56:52.078Z,99279.06
2023-03-02T21:59:18.431Z,99290.69
2023-03-02T22:01:45.056Z,99312.56
2023-03-02T22:04:11.414Z,99313.91
2023-03-02T22:06:37.775Z,99320.72
2023-03-02T22:09:04.824Z,99314.75
2023-03-02T22:11:36.076Z,99322.38
2023-03-02T22:14:10.958Z,99314.88
2023-03-02T22:16:39.762Z,99314.88
2023-03-02T22:19:28.613Z,99316.69
2023-03-02T22:21:57.444Z,99312.50
2023-03-02T22:24:29.077Z,99309.88
2023-03-02T22:27:09.056Z,99307.97
2023-03-02T22:29:46.608Z,99298.50
2023-03-02T22:32:17.641Z,99307.72
2023-03-02T22:34:46.594Z,99306.34
2023-03-02T22:37:21.988Z,99296.00
2023-03-02T22:39:49.996Z,99302.00
2023-03-02T22:42:22.801Z,99298.59
2023-03-02T22:44:58.407Z,99296.13
2023-03-02T22:47:25.219Z,99292.97
2023-03-02T22:50:26.233Z,99289.38
2023-03-02T22:52:54.137Z,99294.66
2023-03-02T22:55:39.382Z,99292.72
2023-03-02T22:58:29.878Z,99295.78
2023-03-02T23:01:00.681Z,99297.47
2023-03-02T23:03:33.288Z,99289.09
2023-03-02T23:05:59.771Z,99299.38
2023-03-02T23:08:30.172Z,99284.28
2023-03-02T23:10:58.744Z,99281.13
2023-03-02T23:13:36.400Z,99282.78
2023-03-02T23:16:19.995Z,99281.28
2023-03-02T23:18:48.166Z,99280.41
2023-03-02T23:21:17.634Z,99285.13
2023-03-02T23:23:44.396Z,99286.41
2023-03-02T23:26:11.000Z,99282.09
2023-03-02T23:28:37.732Z,99282.09
2023-03-02T23:31:05.389Z,99271.41
2023-03-02T23:33:32.131Z,99284.47
2023-03-02T23:35:58.824Z,99280.59
2023-03-02T23:38:25.583Z,99282.97
2023-03-02T23:40:52.042Z,99295.16
2023-03-02T23:43:18.506Z,99278.69
2023-03-02T23:45:45.060Z,99284.22
2023-03-02T23:48:11.563Z,99286.00
2023-03-02T23:50:38.503Z,99293.06
2023-03-02T23:53:05.291Z,99301.50
2023-03-02T23:55:32.586Z,99294.00
2023-03-02T23:57:59.019Z,99306.44
